HTDA/DAR METAR and TAF weather

Enter ICAO airport designator
Station Type Date Time Source
HTDA METAR 2019/06/26 21:00 UTC NOAA

HTDA 262100Z 20005KT 9999 SCT013 23/21 Q1017 NOSIG


Station Type Date Time Source
HTDA Decoded METAR 2019/06/26 21:00 UTC NOAA

Dar Es Salaam Airport, Tanzania (HTDA) 06-52S 039-12E 55M
Jun 26, 2019 - 05:00 PM EDT / 2019.06.26 2100 UTC
Wind: from the SSW (200 degrees) at 6 MPH (5 KT):0
Visibility: greater than 7 mile(s):0
Sky conditions: partly cloudy
Temperature: 73 F (23 C)
Dew Point: 69 F (21 C)
Relative Humidity: 88%
Pressure (altimeter): 30.03 in. Hg (1017 hPa)
ob: HTDA 262100Z 20005KT 9999 SCT013 23/21 Q1017 NOSIG
cycle: 21

Station Type Date Time Source
HTDA TAF 2019/06/26 18:30 UTC NOAA

TAF TAF HTDA 252300Z 2518/2624 19005KT 9999 SCT014
BECMG 2607/2610 17015KT BKN022

Example: see airport list